createdAt,value
2019-03-15T00:00:06.595Z,6.50
2019-03-15T00:02:35.982Z,6.41
2019-03-15T00:05:05.978Z,6.38
2019-03-15T00:07:35.344Z,6.26
2019-03-15T00:10:05.688Z,6.29
2019-03-15T00:12:35.094Z,6.35
2019-03-15T00:15:04.948Z,6.36
2019-03-15T00:17:34.534Z,6.31
2019-03-15T00:20:05.391Z,6.33
2019-03-15T00:22:34.783Z,6.22
2019-03-15T00:25:04.704Z,6.25
2019-03-15T00:27:34.116Z,6.33
2019-03-15T00:30:03.619Z,6.16
2019-03-15T00:32:33.018Z,6.19
2019-03-15T00:35:02.517Z,6.21
2019-03-15T00:37:32.137Z,6.16
2019-03-15T00:40:01.540Z,6.16
2019-03-15T00:42:30.897Z,6.07
2019-03-15T00:45:00.377Z,6.06
2019-03-15T00:47:29.765Z,6.03
2019-03-15T00:49:59.337Z,6.02
2019-03-15T00:52:28.737Z,6.00
2019-03-15T00:54:58.180Z,6.04
2019-03-15T00:57:27.757Z,6.06
2019-03-15T00:59:57.190Z,6.10
2019-03-15T01:02:26.572Z,6.02
2019-03-15T01:04:55.918Z,6.08
2019-03-15T01:07:25.308Z,6.06
2019-03-15T01:09:54.769Z,6.01
2019-03-15T01:12:24.199Z,5.92
2019-03-15T01:14:53.704Z,5.98
2019-03-15T01:17:23.112Z,5.90
2019-03-15T01:19:52.491Z,5.94
2019-03-15T01:22:21.894Z,5.92
2019-03-15T01:24:51.260Z,5.94
2019-03-15T01:27:20.630Z,5.92
2019-03-15T01:29:50.023Z,5.85
2019-03-15T01:32:19.406Z,5.85
2019-03-15T01:34:48.838Z,5.82
2019-03-15T01:37:18.214Z,5.80
2019-03-15T01:39:47.592Z,5.85
2019-03-15T01:42:16.994Z,5.76
2019-03-15T01:44:46.465Z,5.79
2019-03-15T01:47:15.889Z,5.85
2019-03-15T01:49:45.496Z,5.83
2019-03-15T01:52:15.051Z,5.67
2019-03-15T01:54:44.419Z,5.74
2019-03-15T01:57:13.810Z,5.79
2019-03-15T01:59:43.199Z,5.79
2019-03-15T02:02:12.590Z,5.79
2019-03-15T02:04:41.996Z,5.76
2019-03-15T02:07:11.459Z,5.76
2019-03-15T02:09:40.900Z,5.74
2019-03-15T02:12:10.254Z,5.80
2019-03-15T02:14:39.644Z,5.89
2019-03-15T02:17:09.108Z,5.72
2019-03-15T02:19:38.496Z,5.83
2019-03-15T02:22:08.443Z,5.72
2019-03-15T02:24:38.079Z,5.86
2019-03-15T02:27:07.514Z,5.89
2019-03-15T02:29:36.904Z,5.83
2019-03-15T02:32:06.277Z,5.89
2019-03-15T02:34:35.668Z,5.94
2019-03-15T02:37:05.117Z,5.92
2019-03-15T02:39:34.541Z,5.98
2019-03-15T02:42:03.926Z,5.93
2019-03-15T02:44:33.294Z,5.99
2019-03-15T02:47:02.710Z,6.04
2019-03-15T02:49:32.080Z,6.08
2019-03-15T02:52:01.672Z,6.01
2019-03-15T02:54:31.118Z,6.12
2019-03-15T02:57:00.495Z,6.09
2019-03-15T02:59:29.898Z,6.12
2019-03-15T03:02:00.675Z,6.03
2019-03-15T03:04:30.343Z,6.21
2019-03-15T03:06:59.736Z,6.19
2019-03-15T03:09:29.124Z,6.19
2019-03-15T03:11:58.520Z,6.19
2019-03-15T03:14:27.935Z,6.23
2019-03-15T03:16:57.495Z,6.26
2019-03-15T03:19:28.203Z,6.26
2019-03-15T03:21:57.830Z,6.28
2019-03-15T03:24:27.186Z,6.25
2019-03-15T03:26:56.579Z,6.38
2019-03-15T03:29:26.004Z,6.48
2019-03-15T03:31:55.545Z,6.44
2019-03-15T03:34:24.994Z,6.40
2019-03-15T03:36:57.826Z,6.47
2019-03-15T03:39:25.511Z,6.56
2019-03-15T03:41:55.631Z,6.54
2019-03-15T03:44:25.007Z,6.55
2019-03-15T03:46:54.614Z,6.58
2019-03-15T03:49:24.002Z,6.63
2019-03-15T03:51:53.399Z,6.53
2019-03-15T03:54:22.798Z,6.53
2019-03-15T03:56:52.187Z,6.52
2019-03-15T03:59:23.066Z,6.63
2019-03-15T04:01:52.444Z,6.64
2019-03-15T04:04:21.810Z,6.68
2019-03-15T04:06:51.196Z,6.69
2019-03-15T04:09:20.566Z,6.66
2019-03-15T04:11:55.282Z,6.79
2019-03-15T04:14:21.085Z,6.78
2019-03-15T04:16:50.630Z,6.73
2019-03-15T04:19:20.041Z,6.74
2019-03-15T04:21:49.421Z,6.85
2019-03-15T04:24:18.944Z,6.84
2019-03-15T04:26:48.381Z,6.85
2019-03-15T04:29:17.795Z,6.89
2019-03-15T04:31:47.156Z,6.93
2019-03-15T04:34:16.609Z,6.94
2019-03-15T04:36:46.003Z,6.91
2019-03-15T04:39:15.412Z,6.92
2019-03-15T04:41:44.817Z,6.94
2019-03-15T04:44:14.203Z,7.02
2019-03-15T04:46:43.644Z,6.92
2019-03-15T04:49:13.096Z,6.97
2019-03-15T04:51:42.520Z,6.91
2019-03-15T04:54:11.878Z,6.93
2019-03-15T04:56:41.274Z,7.03
2019-03-15T04:59:10.658Z,7.14
2019-03-15T05:01:40.285Z,6.96
2019-03-15T05:04:09.660Z,6.98
2019-03-15T05:06:39.045Z,6.93
2019-03-15T05:09:08.473Z,6.95
2019-03-15T05:11:37.833Z,6.93
2019-03-15T05:14:07.228Z,6.93
2019-03-15T05:16:36.624Z,7.03
2019-03-15T05:19:06.135Z,6.95
2019-03-15T05:21:35.522Z,7.06
2019-03-15T05:24:04.969Z,7.08
2019-03-15T05:26:34.356Z,7.00
2019-03-15T05:29:03.780Z,6.91
2019-03-15T05:31:33.177Z,7.01
2019-03-15T05:34:02.612Z,6.89
2019-03-15T05:36:32.032Z,6.89
2019-03-15T05:39:01.514Z,6.90
2019-03-15T05:41:30.921Z,6.92
2019-03-15T05:44:00.294Z,6.98
2019-03-15T05:46:29.853Z,6.90
2019-03-15T05:48:59.643Z,7.04
2019-03-15T05:51:29.046Z,6.93
2019-03-15T05:53:59.257Z,6.91
2019-03-15T05:56:28.631Z,6.99
2019-03-15T05:58:58.066Z,6.94
2019-03-15T06:01:27.455Z,6.91
2019-03-15T06:03:57.117Z,6.94
2019-03-15T06:06:26.502Z,6.92
2019-03-15T06:08:55.901Z,6.94
2019-03-15T06:11:25.478Z,6.83
2019-03-15T06:13:55.056Z,6.85
2019-03-15T06:16:24.823Z,6.89
2019-03-15T06:18:54.244Z,6.92
2019-03-15T06:21:23.671Z,6.95
2019-03-15T06:23:53.056Z,7.02
2019-03-15T06:26:22.460Z,7.07
2019-03-15T06:28:51.835Z,7.07
2019-03-15T06:31:21.224Z,7.10
2019-03-15T06:33:50.673Z,7.12
2019-03-15T06:36:20.071Z,7.15
2019-03-15T06:38:49.689Z,7.23
2019-03-15T06:41:19.203Z,7.20
2019-03-15T06:43:48.576Z,7.32
2019-03-15T06:46:18.196Z,7.28
2019-03-15T06:48:47.586Z,7.37
2019-03-15T06:51:16.989Z,7.46
2019-03-15T06:53:47.953Z,7.35
2019-03-15T06:56:17.624Z,7.45
2019-03-15T06:58:47.038Z,7.39
2019-03-15T07:01:16.411Z,7.50
2019-03-15T07:03:45.985Z,7.49
2019-03-15T07:06:15.379Z,7.46
2019-03-15T07:08:44.860Z,7.49
2019-03-15T07:11:14.258Z,7.47
2019-03-15T07:13:43.701Z,7.59
2019-03-15T07:16:13.142Z,7.55
2019-03-15T07:18:42.566Z,7.60
2019-03-15T07:21:12.219Z,7.61
2019-03-15T07:23:41.584Z,7.65
2019-03-15T07:26:11.218Z,7.70
2019-03-15T07:28:40.622Z,7.67
2019-03-15T07:31:09.995Z,7.64
2019-03-15T07:33:39.477Z,7.66
2019-03-15T07:36:08.981Z,7.72
2019-03-15T07:38:38.390Z,7.79
2019-03-15T07:41:07.773Z,7.82
2019-03-15T07:43:37.181Z,7.73
2019-03-15T07:46:06.577Z,7.75
2019-03-15T07:48:35.941Z,7.90
2019-03-15T07:51:05.394Z,7.79
2019-03-15T07:53:35.552Z,7.78
2019-03-15T07:56:05.264Z,7.81
2019-03-15T07:58:34.627Z,7.73
2019-03-15T08:01:04.216Z,7.67
2019-03-15T08:03:33.600Z,7.63
2019-03-15T08:06:03.031Z,7.57
2019-03-15T08:08:32.608Z,7.81
2019-03-15T08:11:02.102Z,7.82
2019-03-15T08:13:31.533Z,7.81
2019-03-15T08:16:00.906Z,7.90
2019-03-15T08:18:30.357Z,7.74
2019-03-15T08:20:59.973Z,7.75
2019-03-15T08:23:29.384Z,7.74
2019-03-15T08:25:58.784Z,7.63
2019-03-15T08:28:28.236Z,7.55
2019-03-15T08:30:57.671Z,7.60
2019-03-15T08:33:27.135Z,7.56
2019-03-15T08:35:56.614Z,7.67
2019-03-15T08:38:25.994Z,7.72
2019-03-15T08:40:55.754Z,7.61
2019-03-15T08:43:25.294Z,7.59
2019-03-15T08:45:54.742Z,7.65
2019-03-15T08:48:24.247Z,7.53
2019-03-15T08:50:53.716Z,7.62
2019-03-15T08:53:23.089Z,7.64
2019-03-15T08:55:52.595Z,7.73
2019-03-15T08:58:22.562Z,7.65
2019-03-15T09:00:52.304Z,7.46
2019-03-15T09:03:27.780Z,7.51
2019-03-15T09:05:52.995Z,7.72
2019-03-15T09:08:24.033Z,7.53
2019-03-15T09:10:53.455Z,7.87
2019-03-15T09:13:22.887Z,7.77
2019-03-15T09:15:52.300Z,7.75
2019-03-15T09:18:21.903Z,7.91
2019-03-15T09:20:51.298Z,7.97
2019-03-15T09:23:20.726Z,7.73
2019-03-15T09:25:50.155Z,7.55
2019-03-15T09:28:19.528Z,7.68
2019-03-15T09:30:49.224Z,7.72
2019-03-15T09:33:18.572Z,7.78
2019-03-15T09:35:47.961Z,7.56
2019-03-15T09:38:17.369Z,7.78
2019-03-15T09:40:46.748Z,7.80
2019-03-15T09:43:16.225Z,7.67
2019-03-15T09:45:45.647Z,7.89
2019-03-15T09:48:15.037Z,7.81
2019-03-15T09:50:51.105Z,7.44
2019-03-15T09:53:15.584Z,7.41
2019-03-15T09:55:45.148Z,7.31
2019-03-15T09:58:14.921Z,7.39
2019-03-15T10:00:44.318Z,7.47
2019-03-15T10:03:22.021Z,7.43
2019-03-15T10:05:44.990Z,7.24
2019-03-15T10:08:14.386Z,7.35
2019-03-15T10:10:43.805Z,7.36
2019-03-15T10:13:13.218Z,7.59
2019-03-15T10:15:42.897Z,7.31
2019-03-15T10:18:12.310Z,7.26
2019-03-15T10:20:41.685Z,7.07
2019-03-15T10:23:11.192Z,7.09
2019-03-15T10:25:46.601Z,7.18
2019-03-15T10:28:11.810Z,7.17
2019-03-15T10:30:41.271Z,7.23
2019-03-15T10:33:10.722Z,7.10
2019-03-15T10:35:40.084Z,7.36
2019-03-15T10:38:09.983Z,7.60
2019-03-15T10:40:39.386Z,7.62
2019-03-15T10:43:08.758Z,7.55
2019-03-15T10:45:38.153Z,7.60
2019-03-15T10:48:08.253Z,7.53
2019-03-15T10:50:38.013Z,7.60
2019-03-15T10:53:07.387Z,7.48
2019-03-15T10:55:36.769Z,7.52
2019-03-15T10:58:06.162Z,7.41
2019-03-15T11:00:35.637Z,7.55
2019-03-15T11:03:05.009Z,7.76
2019-03-15T11:05:34.375Z,7.74
2019-03-15T11:08:04.095Z,7.77
2019-03-15T11:10:33.598Z,7.78
2019-03-15T11:13:02.994Z,7.51
2019-03-15T11:15:32.368Z,7.88
2019-03-15T11:18:02.057Z,7.79
2019-03-15T11:20:31.699Z,7.47
2019-03-15T11:23:01.308Z,7.68
2019-03-15T11:25:30.709Z,7.63
2019-03-15T11:28:00.108Z,7.85
2019-03-15T11:30:29.507Z,7.47
2019-03-15T11:32:58.876Z,7.77
2019-03-15T11:35:28.279Z,7.66
2019-03-15T11:37:57.653Z,7.60
2019-03-15T11:40:27.042Z,7.71
2019-03-15T11:42:56.727Z,7.83
2019-03-15T11:45:28.441Z,8.11
2019-03-15T11:48:04.744Z,7.76
2019-03-15T11:50:29.115Z,7.97
2019-03-15T11:52:58.520Z,7.88
2019-03-15T11:55:29.375Z,7.78
2019-03-15T11:57:59.906Z,7.83
2019-03-15T12:00:30.194Z,7.73
2019-03-15T12:03:01.522Z,7.81
2019-03-15T12:05:31.045Z,7.79
2019-03-15T12:08:00.400Z,7.76
2019-03-15T12:10:29.811Z,7.87
2019-03-15T12:12:59.379Z,7.86
2019-03-15T12:15:28.813Z,8.17
2019-03-15T12:17:58.169Z,8.08
2019-03-15T12:20:27.567Z,7.80
2019-03-15T12:22:57.051Z,7.75
2019-03-15T12:25:26.455Z,7.94
2019-03-15T12:27:55.853Z,7.96
2019-03-15T12:30:25.241Z,7.93
2019-03-15T12:32:54.667Z,7.81
2019-03-15T12:35:24.046Z,8.01
2019-03-15T12:37:53.475Z,7.96
2019-03-15T12:40:22.871Z,8.05
2019-03-15T12:42:52.443Z,8.06
2019-03-15T12:45:21.818Z,8.37
2019-03-15T12:47:51.317Z,8.31
2019-03-15T12:50:20.705Z,8.29
2019-03-15T12:52:50.063Z,8.44
2019-03-15T12:55:19.681Z,8.56
2019-03-15T12:57:49.783Z,8.74
2019-03-15T13:00:19.419Z,8.72
2019-03-15T13:02:48.918Z,8.72
2019-03-15T13:05:18.307Z,8.91
2019-03-15T13:07:47.726Z,8.93
2019-03-15T13:10:17.117Z,9.33
2019-03-15T13:12:46.683Z,9.33
2019-03-15T13:15:16.928Z,9.39
2019-03-15T13:17:46.316Z,9.46
2019-03-15T13:20:16.181Z,9.61
2019-03-15T13:22:45.566Z,9.73
2019-03-15T13:25:15.169Z,9.86
2019-03-15T13:27:44.694Z,10.07
2019-03-15T13:30:14.191Z,10.07
2019-03-15T13:32:43.584Z,10.05
2019-03-15T13:35:13.462Z,10.14
2019-03-15T13:37:43.454Z,10.32
2019-03-15T13:40:13.104Z,10.35
2019-03-15T13:42:42.548Z,10.49
2019-03-15T13:45:12.047Z,10.47
2019-03-15T13:47:41.431Z,10.47
2019-03-15T13:50:11.883Z,10.54
2019-03-15T13:52:41.272Z,10.68
2019-03-15T13:55:10.833Z,10.68
2019-03-15T13:57:40.275Z,10.79
2019-03-15T14:00:11.339Z,10.94
2019-03-15T14:02:40.725Z,10.93
2019-03-15T14:05:10.169Z,10.93
2019-03-15T14:07:39.577Z,11.00
2019-03-15T14:10:09.864Z,11.00
2019-03-15T14:12:39.580Z,11.00
2019-03-15T14:15:10.324Z,10.96
2019-03-15T14:17:40.122Z,10.99
2019-03-15T14:20:10.298Z,10.98
2019-03-15T14:22:39.730Z,10.98
2019-03-15T14:25:10.510Z,10.95
2019-03-15T14:27:39.919Z,11.03
2019-03-15T14:30:11.026Z,11.01
2019-03-15T14:32:40.464Z,11.05
2019-03-15T14:35:10.236Z,11.14
2019-03-15T14:37:39.849Z,11.15
2019-03-15T14:40:09.437Z,11.22
2019-03-15T14:42:38.995Z,11.16
2019-03-15T14:45:09.494Z,11.16
2019-03-15T14:47:39.217Z,11.19
2019-03-15T14:50:08.816Z,11.23
2019-03-15T14:52:38.249Z,11.22
2019-03-15T14:55:08.038Z,11.36
2019-03-15T14:57:50.597Z,11.35
2019-03-15T15:00:11.270Z,11.41
2019-03-15T15:02:40.969Z,11.28
2019-03-15T15:05:11.708Z,11.37
2019-03-15T15:07:41.189Z,11.36
2019-03-15T15:10:11.319Z,11.43
2019-03-15T15:12:40.790Z,11.33
2019-03-15T15:15:12.076Z,11.38
2019-03-15T15:17:41.758Z,11.42
2019-03-15T15:20:11.584Z,11.32
2019-03-15T15:22:41.007Z,11.37
2019-03-15T15:25:10.827Z,11.35
2019-03-15T15:27:40.284Z,11.36
2019-03-15T15:30:10.524Z,11.40
2019-03-15T15:32:39.959Z,11.39
2019-03-15T15:35:09.472Z,11.57
2019-03-15T15:37:38.912Z,11.56
2019-03-15T15:40:09.683Z,11.58
2019-03-15T15:42:39.198Z,11.64
2019-03-15T15:45:09.116Z,11.59
2019-03-15T15:47:38.543Z,11.60
2019-03-15T15:50:08.510Z,11.50
2019-03-15T15:52:38.022Z,11.44
2019-03-15T15:55:07.950Z,11.45
2019-03-15T15:57:37.457Z,11.49
2019-03-15T16:00:08.044Z,11.50
2019-03-15T16:02:37.536Z,11.47
2019-03-15T16:05:08.675Z,11.38
2019-03-15T16:07:38.346Z,11.27
2019-03-15T16:10:09.401Z,11.25
2019-03-15T16:12:38.800Z,11.32
2019-03-15T16:15:09.022Z,11.37
2019-03-15T16:17:38.598Z,11.27
2019-03-15T16:20:09.160Z,11.27
2019-03-15T16:22:38.556Z,11.22
2019-03-15T16:25:07.957Z,11.22
2019-03-15T16:27:37.714Z,11.15
2019-03-15T16:30:08.720Z,11.19
2019-03-15T16:32:38.408Z,11.09
2019-03-15T16:35:09.539Z,11.08
2019-03-15T16:37:38.995Z,11.03
2019-03-15T16:40:08.773Z,11.02
2019-03-15T16:42:38.176Z,10.99
2019-03-15T16:45:10.046Z,11.05
2019-03-15T16:47:39.510Z,10.98
2019-03-15T16:50:10.504Z,11.06
2019-03-15T16:52:39.883Z,11.06
2019-03-15T16:55:10.357Z,11.03
2019-03-15T16:57:39.833Z,11.04
2019-03-15T17:00:10.470Z,11.06
2019-03-15T17:02:39.915Z,11.09
2019-03-15T17:05:10.567Z,11.10
2019-03-15T17:07:40.046Z,11.07
2019-03-15T17:10:11.124Z,10.98
2019-03-15T17:12:40.713Z,11.12
2019-03-15T17:15:11.681Z,11.08
2019-03-15T17:17:41.071Z,11.09
2019-03-15T17:20:11.332Z,11.12
2019-03-15T17:22:40.825Z,11.08
2019-03-15T17:25:10.780Z,11.08
2019-03-15T17:27:40.158Z,11.07
2019-03-15T17:30:11.413Z,11.17
2019-03-15T17:32:40.869Z,11.10
2019-03-15T17:35:11.630Z,11.12
2019-03-15T17:37:41.165Z,11.12
2019-03-15T17:40:12.073Z,11.16
2019-03-15T17:42:41.547Z,11.14
2019-03-15T17:45:13.050Z,11.08
2019-03-15T17:47:42.593Z,11.12
2019-03-15T17:50:13.989Z,11.13
2019-03-15T17:52:43.411Z,11.19
2019-03-15T17:55:13.287Z,11.11
2019-03-15T17:57:45.396Z,11.04
2019-03-15T18:00:42.402Z,11.11
2019-03-15T18:03:20.751Z,11.09
2019-03-15T18:05:43.150Z,11.07
2019-03-15T18:08:12.530Z,11.08
2019-03-15T18:10:42.058Z,11.02
2019-03-15T18:13:11.468Z,10.95
2019-03-15T18:15:40.947Z,10.96
2019-03-15T18:18:10.322Z,10.93
2019-03-15T18:20:39.833Z,10.88
2019-03-15T18:23:09.491Z,10.93
2019-03-15T18:25:38.984Z,10.94
2019-03-15T18:28:08.402Z,10.92
2019-03-15T18:30:37.926Z,10.98
2019-03-15T18:33:07.437Z,11.00
2019-03-15T18:35:36.896Z,11.01
2019-03-15T18:38:06.331Z,11.04
2019-03-15T18:40:35.846Z,11.10
2019-03-15T18:43:05.283Z,11.10
2019-03-15T18:45:35.101Z,11.16
2019-03-15T18:48:04.822Z,11.10
2019-03-15T18:50:34.231Z,11.15
2019-03-15T18:53:03.815Z,11.13
2019-03-15T18:55:33.190Z,11.16
2019-03-15T18:58:02.609Z,11.17
2019-03-15T19:00:32.183Z,11.17
2019-03-15T19:03:01.575Z,11.24
2019-03-15T19:05:30.997Z,11.26
2019-03-15T19:08:00.457Z,11.27
2019-03-15T19:10:29.866Z,11.27
2019-03-15T19:12:59.696Z,11.22
2019-03-15T19:15:29.173Z,11.30
2019-03-15T19:17:58.607Z,11.24
2019-03-15T19:20:28.134Z,11.21
2019-03-15T19:22:57.649Z,11.24
2019-03-15T19:25:27.143Z,11.21
2019-03-15T19:27:56.526Z,11.20
2019-03-15T19:30:26.184Z,11.19
2019-03-15T19:32:55.665Z,11.19
2019-03-15T19:35:25.838Z,11.14
2019-03-15T19:37:55.437Z,11.16
2019-03-15T19:40:25.319Z,11.11
2019-03-15T19:42:55.267Z,11.11
2019-03-15T19:45:24.938Z,11.09
2019-03-15T19:47:54.663Z,11.09
2019-03-15T19:50:24.234Z,11.11
2019-03-15T19:52:55.963Z,11.10
2019-03-15T19:55:25.688Z,11.13
2019-03-15T19:57:55.348Z,11.04
2019-03-15T20:00:25.263Z,11.02
2019-03-15T20:02:57.019Z,11.02
2019-03-15T20:05:26.879Z,11.08
2019-03-15T20:07:56.721Z,11.04
2019-03-15T20:10:26.733Z,11.02
2019-03-15T20:12:56.459Z,11.05
2019-03-15T20:15:26.492Z,11.08
2019-03-15T20:17:56.407Z,11.07
2019-03-15T20:20:25.989Z,11.03
2019-03-15T20:22:55.733Z,11.04
2019-03-15T20:25:25.721Z,11.00
2019-03-15T20:27:55.260Z,11.00
2019-03-15T20:30:26.796Z,11.02
2019-03-15T20:32:56.262Z,11.00
2019-03-15T20:35:25.670Z,10.99
2019-03-15T20:37:55.090Z,11.06
2019-03-15T20:40:24.479Z,11.09
2019-03-15T20:42:54.008Z,11.08
2019-03-15T20:45:23.642Z,11.11
2019-03-15T20:47:53.171Z,11.14
2019-03-15T20:50:22.686Z,11.17
2019-03-15T20:52:52.447Z,11.12
2019-03-15T20:55:22.502Z,11.16
2019-03-15T20:57:51.953Z,11.23
2019-03-15T21:00:34.350Z,11.28
2019-03-15T21:02:52.574Z,11.22
2019-03-15T21:05:21.957Z,11.25
2019-03-15T21:07:51.509Z,11.30
2019-03-15T21:10:20.980Z,11.24
2019-03-15T21:12:50.483Z,11.25
2019-03-15T21:15:19.899Z,11.22
2019-03-15T21:17:49.412Z,11.31
2019-03-15T21:20:22.172Z,11.26
2019-03-15T21:22:50.205Z,11.31
2019-03-15T21:25:19.649Z,11.23
2019-03-15T21:27:54.200Z,11.33
2019-03-15T21:30:20.274Z,11.34
2019-03-15T21:32:49.907Z,11.34
2019-03-15T21:35:19.524Z,11.37
2019-03-15T21:37:48.925Z,11.42
2019-03-15T21:40:18.313Z,11.38
2019-03-15T21:42:48.149Z,11.37
2019-03-15T21:45:17.593Z,11.32
2019-03-15T21:47:47.220Z,11.37
2019-03-15T21:50:16.649Z,11.37
2019-03-15T21:52:46.321Z,11.34
2019-03-15T21:55:15.710Z,11.34
2019-03-15T21:57:45.228Z,11.44
2019-03-15T22:00:15.033Z,11.34
2019-03-15T22:02:44.526Z,11.33
2019-03-15T22:05:14.005Z,11.31
2019-03-15T22:07:43.545Z,11.29
2019-03-15T22:10:13.011Z,11.35
2019-03-15T22:12:42.386Z,11.30
2019-03-15T22:15:13.661Z,11.29
2019-03-15T22:17:43.152Z,11.29
2019-03-15T22:20:12.750Z,11.31
2019-03-15T22:22:42.760Z,11.36
2019-03-15T22:25:12.142Z,11.33
2019-03-15T22:27:41.557Z,11.28
2019-03-15T22:30:11.589Z,11.30
2019-03-15T22:32:41.116Z,11.28
2019-03-15T22:35:10.956Z,11.31
2019-03-15T22:37:40.509Z,11.31
2019-03-15T22:40:10.227Z,11.30
2019-03-15T22:42:39.837Z,11.26
2019-03-15T22:45:09.655Z,11.32
2019-03-15T22:47:39.340Z,11.28
2019-03-15T22:50:09.580Z,11.27
2019-03-15T22:52:39.170Z,11.32
2019-03-15T22:55:08.930Z,11.31
2019-03-15T22:57:38.371Z,11.33
2019-03-15T23:00:10.523Z,11.32
2019-03-15T23:02:40.417Z,11.32
2019-03-15T23:05:10.511Z,11.37
2019-03-15T23:07:40.222Z,11.36
2019-03-15T23:10:10.483Z,11.45
2019-03-15T23:12:40.139Z,11.39
2019-03-15T23:15:09.818Z,11.39
2019-03-15T23:17:39.240Z,11.39
2019-03-15T23:20:08.675Z,11.37
2019-03-15T23:22:38.181Z,11.43
2019-03-15T23:25:07.746Z,11.35
2019-03-15T23:27:37.591Z,11.34
2019-03-15T23:30:07.487Z,11.41
2019-03-15T23:32:36.910Z,11.43
2019-03-15T23:35:06.668Z,11.45
2019-03-15T23:37:36.086Z,11.44
2019-03-15T23:40:05.960Z,11.48
2019-03-15T23:42:35.632Z,11.46
2019-03-15T23:45:05.837Z,11.51
2019-03-15T23:47:35.215Z,11.40
2019-03-15T23:50:05.261Z,11.34
2019-03-15T23:52:34.663Z,11.28
2019-03-15T23:55:04.180Z,11.26
2019-03-15T23:57:33.580Z,11.31
